Terminal Aerodrome Forecast
Issued by NWS

Home | Current Version | Previous Version | Text Only | Print | Product List | Glossary On
Versions: 1 2 3 4 5 6 7 8 9 10 11 12 13 14 15 16 17 18 19
939
FTUS46 KHNX 081214 AAA
TAFMCE
TAF AMD
KMCE 081214Z 0812/0912 VRB03KT 3/4SM BR SKC
      TEMPO 0813/0817 1/4SM FG VV002
     FM081800 VRB03KT 5SM HZ SKC
     FM082100 VRB03KT P6SM SKC
     FM090600 00000KT 3SM BR SKC
      TEMPO 0908/0912 1SM BR=

USA.gov is the U.S. government's official web portal to all federal, state and local government web resources and services.